Etusivu
METAR-TAF:

METAR-TAF

Lentoasemat :

Cedar Rapids, Iowa, Yhdysvallat

Leveyspiiri: 41-53-04N, Pituuspiiri: 091-42-38W, korkeus merenpinnasta: 263 m

Tämänhetkinen sää

Tämä raportti tehtiin 49 minuuttia sitten, kello 11.52 UTC
tyyntä
Lämpötila -9°C
Kosteus 100%
Ilmanpaine 1027 hPa
Näkyvyys: 9.7 km
selkeää
utua

METAR: KCID 151152Z 00000KT 6SM BR CLR M09/M09 A3033 RMK AO2 SLP287 I6000 T10891094 11072 21111 53007

Aika: 06:41 (12:41 UTC)

Sääennuste

Tämä raportti tehtiin 1 tunti ja 21 minuuttia sitten, kello 11.20 UTC
Ennuste voimassa 15. päivästä klo 12 UTC - 16. päivään klo 12 UTC
Tuuli 5 kn lounaasta
Näkyvyys: 10 km
selkeää
From 16. päivästä klo 0600 UTC
Tuuli 7 kn idästä/kaakosta
Näkyvyys: 9.7 km
Hajonneita pilviä 25000 ft:n korkeudessa
utua

TAF: KCID 151120Z 1512/1612 23005KT P6SM SKC FM160600 11007KT 6SM BR BKN250

Säähavainnot ja -ennusteet yli 4000 lentoasemalta (METAR- ja TAF-raportit).

Käytössä olevat sääasemat on merkitty karttaan keltaisilla ja punaisilla pisteillä.

Aseta hiiri pisteen päälle nähdäksesi sääaseman nimen.

Klikkaa sitten nähdäksesi säähavainnot ja -ennusteet.

Kartan vaihtaminen: klikkaa mustalla rastilla varustettuja vihreitä pisteitä, niin voit zoomata sisään; viivalla varustettua vihreää pistettä, niin voit zoomata ulos tai vihreitä nuolia, niin pääset viereisille kartoille.


METAR-TAF: